Time;durP1;ratioP1;P1;durP2;ratioP2;P2;SDS_P1;SDS_P2;PMS_P1;PMS_P2;Temp;Humidity;BMP_temperature;BMP_pressure;BME280_temperature;BME280_humidity;BME280_pressure;Samples;Min_cycle;Max_cycle;Signal;HPM_P1;HPM_P2
2023/02/20 00:00:22;;;;;;;11.70;8.35;;;;;;;6.96;100.00;102500.78;5222957;28;20444;-72
2023/02/20 00:02:53;;;;;;;10.02;8.25;;;;;;;6.89;100.00;102507.16;5221161;28;20041;-72
2023/02/20 00:05:25;;;;;;;11.00;8.57;;;;;;;6.96;100.00;102507.75;5218774;28;20025;-72
2023/02/20 00:07:56;;;;;;;12.27;8.65;;;;;;;6.95;100.00;102506.91;5204405;28;20076;-72
2023/02/20 00:10:28;;;;;;;13.88;9.48;;;;;;;7.03;100.00;102509.19;5223911;28;20025;-72
2023/02/20 00:12:59;;;;;;;12.77;8.57;;;;;;;6.99;100.00;102500.66;5222635;28;20021;-73
2023/02/20 00:15:30;;;;;;;10.73;8.95;;;;;;;7.04;100.00;102516.09;5225595;28;20474;-73
2023/02/20 00:18:02;;;;;;;12.65;8.68;;;;;;;7.00;100.00;102507.56;5221853;28;20026;-73
2023/02/20 00:20:35;;;;;;;12.38;9.40;;;;;;;7.04;100.00;102503.06;5200429;28;20030;-72
2023/02/20 00:23:06;;;;;;;12.52;9.85;;;;;;;7.04;100.00;102501.28;5224406;28;20112;-72
2023/02/20 00:25:37;;;;;;;11.05;9.38;;;;;;;7.10;100.00;102502.81;5222958;28;20485;-72
2023/02/20 00:28:09;;;;;;;15.85;10.13;;;;;;;7.02;100.00;102497.94;5225937;28;20403;-73
2023/02/20 00:30:40;;;;;;;12.77;9.25;;;;;;;7.09;100.00;102495.06;5220807;28;20059;-72
2023/02/20 00:33:11;;;;;;;13.80;10.50;;;;;;;7.10;100.00;102481.09;5225676;28;20025;-73
2023/02/20 00:35:43;;;;;;;14.00;10.65;;;;;;;6.99;100.00;102458.13;5223430;28;20036;-72
2023/02/20 00:38:15;;;;;;;14.40;10.00;;;;;;;7.09;100.00;102475.06;5224024;28;20041;-73
2023/02/20 00:40:46;;;;;;;12.93;10.03;;;;;;;7.11;100.00;102464.56;5224571;28;20083;-73
2023/02/20 00:43:18;;;;;;;12.43;10.10;;;;;;;7.10;100.00;102455.03;5227576;28;20025;-73
2023/02/20 00:45:49;;;;;;;14.52;10.27;;;;;;;7.07;100.00;102451.66;5222920;28;20513;-73
2023/02/20 00:48:20;;;;;;;11.38;9.63;;;;;;;7.02;100.00;102442.34;5225627;28;20021;-73
2023/02/20 00:50:51;;;;;;;13.55;9.98;;;;;;;7.04;100.00;102449.16;5222226;28;20038;-73
2023/02/20 00:53:23;;;;;;;12.95;9.98;;;;;;;7.04;100.00;102446.56;5223224;28;20036;-73
2023/02/20 00:55:54;;;;;;;12.98;10.43;;;;;;;7.03;100.00;102428.41;5223875;28;20030;-72
2023/02/20 00:58:25;;;;;;;16.30;10.40;;;;;;;7.00;100.00;102428.53;5222861;28;20127;-73
2023/02/20 01:00:56;;;;;;;14.60;10.38;;;;;;;6.94;100.00;102429.66;5220769;28;20037;-73
2023/02/20 01:03:28;;;;;;;16.15;10.05;;;;;;;6.92;100.00;102428.88;5220305;28;20115;-73
2023/02/20 01:05:59;;;;;;;15.55;9.88;;;;;;;6.95;100.00;102425.28;5220376;28;20036;-73
2023/02/20 01:08:30;;;;;;;15.18;9.73;;;;;;;6.97;100.00;102420.84;5226503;28;20049;-73
2023/02/20 01:11:02;;;;;;;12.95;10.07;;;;;;;6.96;100.00;102425.22;5217026;28;20038;-73
2023/02/20 01:13:33;;;;;;;13.30;9.60;;;;;;;6.94;100.00;102431.44;5221106;28;20117;-73
2023/02/20 01:16:05;;;;;;;16.65;9.88;;;;;;;6.91;100.00;102423.75;5209270;28;20034;-73
2023/02/20 01:18:36;;;;;;;12.70;9.48;;;;;;;6.89;100.00;102428.16;5226065;28;20029;-73
2023/02/20 01:21:07;;;;;;;14.63;10.18;;;;;;;6.92;100.00;102446.28;5219145;28;20037;-72
2023/02/20 01:23:39;;;;;;;12.95;10.48;;;;;;;6.88;100.00;102445.56;5222982;28;20018;-73
2023/02/20 01:26:10;;;;;;;15.68;10.13;;;;;;;6.82;100.00;102432.81;5223643;28;20045;-72
2023/02/20 01:28:48;;;;;;;14.93;9.82;;;;;;;6.93;100.00;102434.94;5218860;28;20133;-72
2023/02/20 01:31:19;;;;;;;16.70;11.63;;;;;;;6.81;100.00;102433.72;5224189;28;20039;-72
2023/02/20 01:33:51;;;;;;;14.38;10.43;;;;;;;6.87;100.00;102436.06;5202113;28;20013;-73
2023/02/20 01:36:22;;;;;;;17.65;10.50;;;;;;;6.88;100.00;102432.53;5222160;28;20021;-73
2023/02/20 01:38:53;;;;;;;15.77;10.75;;;;;;;6.79;100.00;102431.19;5218119;28;20032;-73
2023/02/20 01:41:25;;;;;;;16.30;10.32;;;;;;;6.81;100.00;102418.06;5208577;28;20092;-73
2023/02/20 01:43:56;;;;;;;16.92;11.07;;;;;;;6.81;100.00;102424.13;5223239;28;20490;-73
2023/02/20 01:46:27;;;;;;;17.20;10.40;;;;;;;6.81;100.00;102416.31;5202758;28;20120;-73
2023/02/20 01:49:08;;;;;;;14.60;9.73;;;;;;;6.81;100.00;102425.91;5220209;28;20033;-73
2023/02/20 01:51:47;;;;;;;15.27;10.07;;;;;;;6.90;100.00;102417.69;5222349;28;20510;-72
2023/02/20 01:54:21;;;;;;;13.20;9.80;;;;;;;6.79;100.00;102414.72;5221272;28;20503;-73
2023/02/20 01:56:57;;;;;;;16.05;11.50;;;;;;;6.74;100.00;102407.09;5224404;28;20566;-73
2023/02/20 01:59:32;;;;;;;16.23;10.60;;;;;;;6.75;100.00;102403.59;5202772;28;20021;-73
2023/02/20 02:02:05;;;;;;;15.48;9.77;;;;;;;6.71;100.00;102391.59;5204213;28;20110;-73
2023/02/20 02:04:39;;;;;;;19.10;10.18;;;;;;;6.74;100.00;102382.78;5219348;28;20393;-73
2023/02/20 02:07:11;;;;;;;16.63;11.30;;;;;;;6.62;100.00;102378.13;5218438;28;20521;-73
2023/02/20 02:09:57;;;;;;;17.13;11.20;;;;;;;6.77;100.00;102372.25;5224817;28;20029;-73
2023/02/20 02:12:29;;;;;;;17.30;10.68;;;;;;;6.59;100.00;102360.88;5218685;28;20132;-73
2023/02/20 02:15:00;;;;;;;18.08;12.02;;;;;;;6.57;100.00;102352.28;5200960;28;20128;-73
2023/02/20 02:18:07;;;;;;;19.23;11.50;;;;;;;6.84;100.00;102337.19;5223473;28;20076;-73
2023/02/20 02:21:15;;;;;;;16.25;12.20;;;;;;;6.76;100.00;102331.50;5207080;28;20041;-73
2023/02/20 02:23:46;;;;;;;17.83;13.05;;;;;;;6.61;100.00;102330.41;5202708;28;20505;-73
2023/02/20 02:26:45;;;;;;;21.27;12.80;;;;;;;6.77;100.00;102333.16;5222286;28;20136;-73
2023/02/20 02:30:08;;;;;;;21.25;14.60;;;;;;;6.76;100.00;102332.34;5217269;28;20280;-73
2023/02/20 02:33:01;;;;;;;20.58;13.65;;;;;;;6.79;100.00;102349.59;5179359;28;20041;-73
2023/02/20 02:35:50;;;;;;;21.98;14.65;;;;;;;6.88;100.00;102340.50;5219653;28;20029;-73
2023/02/20 02:38:28;;;;;;;24.45;15.02;;;;;;;6.73;100.00;102332.47;5218167;28;20091;-72
2023/02/20 02:41:10;;;;;;;20.35;13.95;;;;;;;6.74;100.00;102325.50;5220799;28;20037;-73
2023/02/20 02:43:48;;;;;;;18.38;14.40;;;;;;;6.63;100.00;102317.31;5220528;28;20029;-73
2023/02/20 02:46:28;;;;;;;20.35;15.07;;;;;;;6.72;100.00;102316.91;5228967;28;20025;-73
2023/02/20 02:49:10;;;;;;;22.05;15.90;;;;;;;6.74;100.00;102323.75;5220285;28;20033;-73
2023/02/20 02:51:44;;;;;;;23.02;16.35;;;;;;;6.65;100.00;102320.72;5221190;28;20033;-73
2023/02/20 02:54:27;;;;;;;22.85;15.65;;;;;;;6.75;100.00;102311.56;5218585;28;20109;-72
2023/02/20 02:57:18;;;;;;;25.57;16.97;;;;;;;6.94;100.00;102307.22;5223664;28;20037;-73
2023/02/20 03:00:03;;;;;;;26.02;18.20;;;;;;;6.91;100.00;102309.09;5215585;28;20466;-73
2023/02/20 03:03:01;;;;;;;25.38;18.63;;;;;;;6.78;100.00;102306.19;5220043;28;20521;-73
2023/02/20 03:05:57;;;;;;;24.92;19.05;;;;;;;7.01;100.00;102298.19;5207959;28;20049;-72
2023/02/20 03:08:34;;;;;;;27.33;19.90;;;;;;;6.83;100.00;102297.28;5221434;28;20040;-73
2023/02/20 03:11:11;;;;;;;28.35;19.05;;;;;;;6.83;100.00;102288.63;5224629;28;20033;-72
2023/02/20 03:16:57;;;;;;;24.90;18.92;;;;;;;7.09;100.00;102277.00;5221103;28;20049;-73
2023/02/20 03:19:37;;;;;;;26.10;18.92;;;;;;;7.03;100.00;102274.66;5227033;28;20042;-72
2023/02/20 03:22:22;;;;;;;26.40;19.55;;;;;;;7.08;100.00;102275.28;5226081;28;20086;-73
2023/02/20 03:24:57;;;;;;;30.88;20.10;;;;;;;7.06;100.00;102280.56;5221166;28;20038;-72
2023/02/20 03:27:43;;;;;;;27.40;19.25;;;;;;;7.16;100.00;102287.94;5207835;28;20018;-72
2023/02/20 03:30:15;;;;;;;29.63;18.50;;;;;;;7.11;100.00;102285.56;5200289;28;20033;-73
2023/02/20 03:44:24;;;;;;;23.30;17.80;;;;;;;7.24;100.00;102289.28;5220877;28;20053;-73
2023/02/20 03:46:58;;;;;;;23.95;17.58;;;;;;;7.24;100.00;102291.06;5217499;28;20498;-74
2023/02/20 03:49:41;;;;;;;29.55;17.35;;;;;;;7.41;100.00;102288.47;5221441;28;20474;-73
2023/02/20 03:52:12;;;;;;;23.48;18.05;;;;;;;7.24;100.00;102280.63;5228163;28;20034;-72
2023/02/20 03:54:44;;;;;;;26.73;18.35;;;;;;;7.32;100.00;102281.09;5223739;28;20032;-72
2023/02/20 03:57:21;;;;;;;24.08;19.08;;;;;;;7.31;100.00;102271.56;5223632;28;20033;-73
2023/02/20 03:59:58;;;;;;;23.52;17.27;;;;;;;7.32;100.00;102276.72;5228044;28;20044;-73
2023/02/20 04:02:33;;;;;;;23.13;17.30;;;;;;;7.25;100.00;102271.88;5222027;28;20025;-73
2023/02/20 04:05:10;;;;;;;25.42;17.85;;;;;;;7.31;100.00;102267.22;5203236;28;20282;-73
2023/02/20 04:07:49;;;;;;;27.55;18.30;;;;;;;7.25;100.00;102267.53;5222116;28;20038;-73
2023/02/20 04:10:27;;;;;;;26.25;18.13;;;;;;;7.25;100.00;102271.88;5222301;28;20492;-73
2023/02/20 04:12:59;;;;;;;23.10;17.45;;;;;;;7.22;100.00;102277.25;5203506;28;20084;-73
2023/02/20 04:15:32;;;;;;;24.97;17.83;;;;;;;7.27;100.00;102276.13;5224672;28;20021;-73
2023/02/20 04:18:08;;;;;;;22.23;17.20;;;;;;;7.35;100.00;102280.97;5225823;28;20029;-73
2023/02/20 04:20:40;;;;;;;25.85;17.92;;;;;;;7.36;100.00;102289.63;5219214;28;20061;-73
2023/02/20 04:23:21;;;;;;;28.10;18.23;;;;;;;7.53;100.00;102287.88;5225196;28;20061;-73
2023/02/20 04:25:52;;;;;;;23.08;17.90;;;;;;;7.44;100.00;102290.94;5225002;28;20144;-73
2023/02/20 04:28:24;;;;;;;23.53;16.87;;;;;;;7.40;100.00;102288.56;5218920;28;20574;-73
2023/02/20 04:30:55;;;;;;;23.17;17.85;;;;;;;7.41;100.00;102285.88;5219511;28;20383;-73
2023/02/20 04:33:27;;;;;;;23.45;17.20;;;;;;;7.49;100.00;102294.16;5220908;28;20030;-73
2023/02/20 04:35:58;;;;;;;23.27;16.45;;;;;;;7.52;100.00;102295.78;5225687;28;20022;-73
2023/02/20 04:38:29;;;;;;;23.10;16.65;;;;;;;7.57;100.00;102288.56;5225711;28;20050;-73
2023/02/20 04:41:01;;;;;;;24.05;15.20;;;;;;;7.62;100.00;102289.19;5218655;28;20039;-73
2023/02/20 04:43:32;;;;;;;23.30;16.40;;;;;;;7.51;100.00;102292.34;5219471;28;20041;-73
2023/02/20 04:46:03;;;;;;;21.45;16.25;;;;;;;7.63;100.00;102296.09;5223750;28;20030;-73
2023/02/20 04:48:35;;;;;;;26.48;15.02;;;;;;;7.64;100.00;102292.56;5221576;28;20384;-73
2023/02/20 04:51:06;;;;;;;26.75;17.00;;;;;;;7.69;100.00;102290.59;5224266;28;20026;-73
2023/02/20 04:53:37;;;;;;;23.85;16.25;;;;;;;7.71;100.00;102300.94;5224656;28;20033;-73
2023/02/20 04:56:08;;;;;;;20.00;15.73;;;;;;;7.72;100.00;102302.63;5222347;28;20022;-73
2023/02/20 04:58:40;;;;;;;24.85;17.25;;;;;;;7.78;100.00;102297.09;5221918;28;20025;-73
2023/02/20 05:01:11;;;;;;;26.58;17.40;;;;;;;7.86;100.00;102297.56;5220552;28;20022;-73
2023/02/20 05:03:42;;;;;;;23.63;17.10;;;;;;;7.85;100.00;102301.09;5223898;28;20040;-73
2023/02/20 05:06:13;;;;;;;23.88;17.85;;;;;;;7.88;100.00;102298.34;5223224;28;20033;-73
2023/02/20 05:08:45;;;;;;;24.40;17.92;;;;;;;7.87;100.00;102293.19;5226533;28;20030;-73
2023/02/20 05:11:16;;;;;;;31.38;19.58;;;;;;;7.88;100.00;102289.66;5218963;28;20577;-73
2023/02/20 05:13:48;;;;;;;30.92;20.67;;;;;;;7.96;100.00;102288.38;5224860;28;20107;-73
2023/02/20 05:16:19;;;;;;;30.50;19.98;;;;;;;7.94;100.00;102292.81;5221396;28;20495;-73
2023/02/20 05:18:50;;;;;;;23.88;19.45;;;;;;;7.98;100.00;102304.78;5221000;28;20034;-73
2023/02/20 05:24:12;;;;;;;27.70;20.83;;;;;;;8.02;100.00;102301.09;5220293;28;20506;-73
2023/02/20 05:26:43;;;;;;;28.65;22.23;;;;;;;8.02;100.00;102293.25;5221818;28;20034;-73
2023/02/20 05:29:14;;;;;;;27.40;21.13;;;;;;;8.06;100.00;102304.38;5222031;28;20051;-73
2023/02/20 05:31:46;;;;;;;30.08;22.17;;;;;;;8.19;100.00;102296.78;5222027;28;20025;-73
2023/02/20 05:34:20;;;;;;;29.40;22.63;;;;;;;8.17;100.00;102301.22;5222301;28;20062;-73
2023/02/20 05:36:52;;;;;;;28.90;22.42;;;;;;;8.19;100.00;102305.47;5223018;28;20037;-73
2023/02/20 05:39:23;;;;;;;29.93;22.00;;;;;;;8.17;100.00;102301.22;5222477;28;20605;-73
2023/02/20 05:41:55;;;;;;;30.13;22.75;;;;;;;8.24;100.00;102306.06;5221625;28;20052;-73
2023/02/20 05:44:26;;;;;;;31.45;21.98;;;;;;;8.23;100.00;102306.16;5226883;28;20440;-73
2023/02/20 05:46:57;;;;;;;29.65;23.15;;;;;;;8.25;100.00;102306.91;5219428;28;20380;-73
2023/02/20 05:49:28;;;;;;;32.47;22.83;;;;;;;8.30;100.00;102297.06;5221576;28;20125;-73
2023/02/20 05:52:01;;;;;;;32.22;24.38;;;;;;;8.15;100.00;102290.03;5226743;28;20079;-73
2023/02/20 05:54:33;;;;;;;35.53;24.30;;;;;;;8.25;100.00;102294.69;5221761;28;20037;-73
2023/02/20 05:57:04;;;;;;;31.88;24.02;;;;;;;8.20;100.00;102301.06;5222908;28;20029;-73
2023/02/20 05:59:35;;;;;;;32.53;24.40;;;;;;;8.22;100.00;102296.59;5223080;28;20033;-73
2023/02/20 06:02:07;;;;;;;32.60;25.75;;;;;;;8.21;100.00;102305.38;5223037;28;20060;-74
2023/02/20 06:04:38;;;;;;;31.33;25.45;;;;;;;8.21;100.00;102303.59;5221140;28;20030;-73
2023/02/20 06:07:09;;;;;;;31.55;24.55;;;;;;;8.24;100.00;102297.38;5220359;28;20049;-73
2023/02/20 06:09:43;;;;;;;36.17;25.47;;;;;;;8.27;100.00;102310.28;5223564;28;20400;-73
2023/02/20 06:12:14;;;;;;;34.20;24.95;;;;;;;8.30;100.00;102299.69;5221544;28;20036;-73
2023/02/20 06:14:45;;;;;;;31.85;24.02;;;;;;;8.30;100.00;102297.06;5225394;28;20021;-74
2023/02/20 06:17:16;;;;;;;28.20;23.92;;;;;;;8.39;100.00;102301.84;5226096;28;20514;-73
2023/02/20 06:19:49;;;;;;;30.15;23.73;;;;;;;8.42;100.00;102301.69;5219610;28;20499;-74
2023/02/20 06:22:20;;;;;;;31.52;23.77;;;;;;;8.44;100.00;102307.66;5221452;28;20045;-73
2023/02/20 06:24:51;;;;;;;29.27;22.92;;;;;;;8.37;100.00;102300.19;5222964;28;20025;-73
2023/02/20 06:27:22;;;;;;;28.20;22.55;;;;;;;8.41;100.00;102307.84;5224443;28;20172;-73
2023/02/20 06:29:54;;;;;;;30.02;22.67;;;;;;;8.42;100.00;102317.34;5222275;28;20033;-73
2023/02/20 06:32:25;;;;;;;31.95;23.70;;;;;;;8.43;100.00;102299.91;5216552;28;20105;-73
2023/02/20 06:34:56;;;;;;;32.45;23.80;;;;;;;8.36;100.00;102299.34;5225050;28;20054;-73
2023/02/20 06:37:28;;;;;;;32.92;24.08;;;;;;;8.38;100.00;102304.53;5218717;28;20045;-73
2023/02/20 06:39:59;;;;;;;30.30;24.25;;;;;;;8.32;100.00;102307.44;5218711;28;20502;-73
2023/02/20 06:42:30;;;;;;;25.58;21.92;;;;;;;8.35;100.00;102294.22;5223702;28;20112;-73
2023/02/20 06:45:02;;;;;;;29.05;22.23;;;;;;;8.42;100.00;102308.69;5216046;28;20041;-73
2023/02/20 06:47:33;;;;;;;28.63;23.23;;;;;;;8.43;100.00;102303.38;5214300;28;20025;-73
2023/02/20 06:50:04;;;;;;;33.97;24.80;;;;;;;8.38;100.00;102300.16;5211839;28;20439;-73
2023/02/20 06:52:36;;;;;;;30.90;24.02;;;;;;;8.35;100.00;102297.66;5196161;28;20038;-73
2023/02/20 06:55:07;;;;;;;32.10;25.55;;;;;;;8.35;100.00;102297.66;5214488;28;20021;-73
2023/02/20 06:57:38;;;;;;;33.38;25.75;;;;;;;8.37;100.00;102303.69;5213114;28;20032;-73
2023/02/20 07:00:10;;;;;;;34.85;26.08;;;;;;;8.29;100.00;102295.38;5219930;28;20071;-73
2023/02/20 07:02:42;;;;;;;34.70;26.45;;;;;;;8.49;100.00;102312.66;5219556;28;20044;-73
2023/02/20 07:05:13;;;;;;;33.47;26.67;;;;;;;8.48;100.00;102313.56;5216612;28;20030;-73
2023/02/20 07:07:44;;;;;;;33.83;25.02;;;;;;;8.46;100.00;102310.22;5222649;28;20025;-73
2023/02/20 07:10:16;;;;;;;32.20;25.52;;;;;;;8.48;100.00;102309.19;5218986;28;20467;-73
2023/02/20 07:12:47;;;;;;;36.30;25.45;;;;;;;8.49;100.00;102316.13;5217104;28;20025;-73
2023/02/20 07:15:18;;;;;;;34.75;25.40;;;;;;;8.54;100.00;102321.09;5223174;28;20026;-73
2023/02/20 07:17:50;;;;;;;33.90;25.73;;;;;;;8.51;100.00;102301.19;5211462;28;20025;-73
2023/02/20 07:20:21;;;;;;;30.95;25.65;;;;;;;8.45;100.00;102316.38;5223653;28;20037;-73
2023/02/20 07:22:56;;;;;;;30.02;23.83;;;;;;;8.50;100.00;102319.56;5205952;28;20030;-73
2023/02/20 07:25:27;;;;;;;33.53;24.60;;;;;;;8.52;100.00;102315.97;5224146;28;20117;-73
2023/02/20 07:27:58;;;;;;;33.95;25.38;;;;;;;8.51;100.00;102316.03;5225059;28;20113;-73
2023/02/20 07:30:30;;;;;;;34.80;25.10;;;;;;;8.51;100.00;102313.41;5226411;28;20080;-73
2023/02/20 07:33:01;;;;;;;31.75;22.92;;;;;;;8.53;100.00;102304.56;5223715;28;20045;-73
2023/02/20 07:35:32;;;;;;;32.40;24.48;;;;;;;8.51;100.00;102309.03;5224937;28;20104;-73
2023/02/20 07:38:04;;;;;;;31.50;23.90;;;;;;;8.49;100.00;102308.28;5221734;28;20070;-73
2023/02/20 07:40:35;;;;;;;31.70;24.50;;;;;;;8.52;100.00;102309.88;5220804;28;20034;-73
2023/02/20 07:43:06;;;;;;;35.40;25.25;;;;;;;8.55;100.00;102303.66;5228058;28;20029;-73
2023/02/20 07:45:38;;;;;;;30.25;25.02;;;;;;;8.55;100.00;102298.41;5225983;28;20036;-73
2023/02/20 07:48:09;;;;;;;32.03;24.83;;;;;;;8.51;100.00;102290.75;5226599;28;20025;-73
2023/02/20 07:50:41;;;;;;;28.73;23.10;;;;;;;8.50;100.00;102304.72;5225324;28;20037;-73
2023/02/20 07:53:17;;;;;;;33.67;23.60;;;;;;;8.60;100.00;102291.16;5220954;28;20029;-73
2023/02/20 07:55:48;;;;;;;32.33;24.13;;;;;;;8.58;100.00;102296.50;5225185;28;20386;-75
2023/02/20 07:58:19;;;;;;;26.42;22.50;;;;;;;8.66;100.00;102306.53;5226210;28;20172;-74
2023/02/20 08:00:52;;;;;;;29.73;22.30;;;;;;;8.71;100.00;102304.50;5225800;28;20025;-73
2023/02/20 08:03:24;;;;;;;26.65;21.67;;;;;;;8.71;100.00;102300.16;5225723;28;20037;-73
2023/02/20 08:05:55;;;;;;;29.50;22.23;;;;;;;8.76;100.00;102294.66;5228614;28;20033;-73
2023/02/20 08:08:26;;;;;;;32.72;22.40;;;;;;;8.74;100.00;102301.72;5224344;28;20327;-73
2023/02/20 08:10:58;;;;;;;28.25;22.25;;;;;;;8.76;100.00;102294.66;5218829;28;20026;-73
2023/02/20 08:13:29;;;;;;;27.27;22.50;;;;;;;8.85;100.00;102306.38;5225719;28;20052;-73
2023/02/20 08:16:00;;;;;;;28.00;23.27;;;;;;;8.87;100.00;102294.94;5219465;28;20041;-73
2023/02/20 08:18:31;;;;;;;28.17;22.98;;;;;;;8.90;100.00;102305.22;5222288;28;20022;-73
2023/02/20 08:21:03;;;;;;;28.95;21.85;;;;;;;8.93;100.00;102299.81;5219675;28;20504;-73
2023/02/20 08:23:34;;;;;;;29.92;22.67;;;;;;;8.99;100.00;102301.25;5224332;28;20033;-73
2023/02/20 08:26:05;;;;;;;31.35;22.52;;;;;;;9.01;100.00;102304.63;5221014;28;20049;-73
2023/02/20 08:28:37;;;;;;;33.90;22.13;;;;;;;9.02;100.00;102291.47;5217699;28;20038;-73
2023/02/20 08:31:08;;;;;;;28.15;22.25;;;;;;;9.07;100.00;102290.38;5218769;28;20137;-73
2023/02/20 08:33:39;;;;;;;30.15;22.73;;;;;;;9.07;100.00;102293.84;5217373;28;20558;-73
2023/02/20 08:36:11;;;;;;;29.55;22.73;;;;;;;9.15;100.00;102299.47;5203624;28;20037;-73
2023/02/20 08:38:42;;;;;;;28.25;22.88;;;;;;;9.16;100.00;102297.69;5222422;28;20042;-73
2023/02/20 08:41:13;;;;;;;27.40;21.42;;;;;;;9.11;100.00;102299.75;5217827;28;20123;-73
2023/02/20 08:43:45;;;;;;;31.27;22.40;;;;;;;9.10;100.00;102287.59;5225634;28;20021;-73
2023/02/20 08:46:16;;;;;;;30.58;21.88;;;;;;;9.21;100.00;102296.53;5223729;28;20037;-73
2023/02/20 08:48:48;;;;;;;27.73;22.08;;;;;;;9.22;100.00;102294.75;5220367;28;20033;-73
2023/02/20 08:51:20;;;;;;;30.23;22.67;;;;;;;9.26;100.00;102294.50;5221550;28;20030;-73
2023/02/20 08:53:51;;;;;;;29.30;22.52;;;;;;;9.23;100.00;102291.19;5225938;28;20115;-73
2023/02/20 08:56:22;;;;;;;27.88;23.45;;;;;;;9.27;100.00;102292.72;5221947;28;20473;-73
2023/02/20 08:58:54;;;;;;;29.08;22.35;;;;;;;9.24;100.00;102285.91;5221673;28;20021;-73
2023/02/20 09:01:25;;;;;;;32.78;23.42;;;;;;;9.36;100.00;102301.84;5222759;28;20060;-73
2023/02/20 09:03:56;;;;;;;29.25;22.85;;;;;;;9.36;100.00;102297.44;5203816;28;20033;-73
2023/02/20 09:06:28;;;;;;;35.13;23.13;;;;;;;9.36;100.00;102300.06;5224183;28;20049;-73
2023/02/20 09:08:59;;;;;;;28.73;23.38;;;;;;;9.35;100.00;102305.38;5226243;28;20025;-73
2023/02/20 09:11:31;;;;;;;30.77;23.42;;;;;;;9.35;100.00;102289.66;5222951;28;20116;-73
2023/02/20 09:14:02;;;;;;;28.17;23.70;;;;;;;9.48;100.00;102306.38;5221116;28;20033;-73
2023/02/20 09:16:33;;;;;;;33.53;23.50;;;;;;;9.46;100.00;102308.22;5221486;28;20028;-73
2023/02/20 09:19:06;;;;;;;29.05;23.80;;;;;;;9.45;100.00;102302.16;5226801;28;20030;-73
2023/02/20 09:21:37;;;;;;;32.28;24.55;;;;;;;9.51;100.00;102295.75;5203882;28;20383;-73
2023/02/20 09:24:08;;;;;;;35.80;24.17;;;;;;;9.52;100.00;102289.56;5218665;28;20026;-73
2023/02/20 09:26:40;;;;;;;29.30;22.77;;;;;;;9.49;100.00;102297.59;5217640;28;20025;-73
2023/02/20 09:29:11;;;;;;;29.23;22.83;;;;;;;9.54;100.00;102294.69;5225779;28;20029;-73
2023/02/20 09:31:42;;;;;;;35.10;26.80;;;;;;;9.52;100.00;102293.97;5222101;28;20026;-73
2023/02/20 09:34:13;;;;;;;33.90;25.33;;;;;;;9.55;100.00;102293.78;5223027;28;20071;-73
2023/02/20 09:36:45;;;;;;;28.95;25.23;;;;;;;9.51;100.00;102285.28;5220253;28;20037;-73
2023/02/20 09:39:16;;;;;;;30.05;23.70;;;;;;;9.58;100.00;102286.56;5217949;28;20040;-73
2023/02/20 09:42:21;;;;;;;36.55;25.08;;;;;;;9.83;100.00;102287.78;5217919;28;20027;-73
2023/02/20 09:45:11;;;;;;;37.15;26.90;;;;;;;9.71;100.00;102286.72;5221999;28;20500;-73
2023/02/20 09:47:53;;;;;;;33.78;24.52;;;;;;;9.79;100.00;102287.13;5215517;28;20021;-73
2023/02/20 09:50:33;;;;;;;37.85;26.52;;;;;;;9.65;100.00;102290.53;5219835;28;20048;-73
2023/02/20 09:53:37;;;;;;;30.75;24.40;;;;;;;9.86;100.00;102291.06;5219784;28;20038;-73
2023/02/20 09:56:15;;;;;;;32.70;24.75;;;;;;;9.74;100.00;102276.09;5218710;28;20025;-73
2023/02/20 09:59:01;;;;;;;32.00;25.02;;;;;;;9.74;100.00;102266.47;5220567;28;20026;-73
2023/02/20 10:01:36;;;;;;;32.70;25.25;;;;;;;9.77;100.00;102256.72;5217986;28;20786;-73
2023/02/20 10:04:16;;;;;;;32.55;25.05;;;;;;;9.78;100.00;102256.66;5218325;28;20025;-73
2023/02/20 10:06:52;;;;;;;31.90;24.60;;;;;;;9.70;100.00;102257.09;5212770;28;20026;-73
2023/02/20 10:09:23;;;;;;;32.75;24.02;;;;;;;9.69;100.00;102259.78;5214181;28;20021;-73
2023/02/20 10:12:01;;;;;;;29.98;24.27;;;;;;;9.76;100.00;102268.97;5218271;28;20041;-73
2023/02/20 10:14:54;;;;;;;30.27;22.65;;;;;;;9.76;100.00;102274.22;5218470;28;20030;-73
2023/02/20 10:17:31;;;;;;;28.47;23.10;;;;;;;9.81;100.00;102279.16;5224502;28;20025;-73
2023/02/20 10:20:19;;;;;;;29.45;23.00;;;;;;;9.89;100.00;102283.03;5217517;28;20041;-73
2023/02/20 10:23:12;;;;;;;27.42;22.88;;;;;;;9.86;100.00;102288.44;5218893;28;20021;-73
2023/02/20 10:25:49;;;;;;;27.80;22.13;;;;;;;9.91;100.00;102283.78;5220266;28;20349;-73
2023/02/20 10:28:22;;;;;;;32.88;23.80;;;;;;;9.81;100.00;102295.75;5220974;28;20036;-73
2023/02/20 10:30:53;;;;;;;30.55;24.10;;;;;;;9.85;100.00;102275.44;5206838;28;20036;-73
2023/02/20 10:33:48;;;;;;;29.17;23.57;;;;;;;10.07;100.00;102278.47;5220329;28;20402;-73
2023/02/20 10:36:33;;;;;;;32.08;22.83;;;;;;;9.96;100.00;102288.72;5219171;28;20350;-73
2023/02/20 10:39:09;;;;;;;29.13;24.35;;;;;;;9.88;100.00;102301.44;5215881;28;20029;-73
2023/02/20 10:41:53;;;;;;;28.70;23.20;;;;;;;10.07;100.00;102295.97;5218036;28;20476;-73
2023/02/20 10:44:44;;;;;;;32.67;24.52;;;;;;;10.05;100.00;102301.31;5222233;28;20818;-73
2023/02/20 10:47:26;;;;;;;28.83;23.98;;;;;;;10.03;100.00;102300.53;5220429;28;20029;-73
2023/02/20 10:50:11;;;;;;;27.80;23.50;;;;;;;10.12;100.00;102307.03;5219435;28;20479;-73
2023/02/20 10:53:00;;;;;;;30.23;23.80;;;;;;;10.10;100.00;102301.84;5217195;28;20073;-72
2023/02/20 10:55:55;;;;;;;31.05;23.67;;;;;;;10.23;100.00;102288.91;5227889;28;20053;-73
2023/02/20 10:58:41;;;;;;;30.55;23.73;;;;;;;10.17;100.00;102273.53;5206398;28;20072;-73
2023/02/20 11:01:19;;;;;;;34.13;25.75;;;;;;;10.03;100.00;102279.59;5224233;28;20550;-73
2023/02/20 11:04:06;;;;;;;35.53;25.83;;;;;;;10.06;100.00;102289.03;5221831;28;20104;-73
2023/02/20 11:07:07;;;;;;;39.20;27.48;;;;;;;10.29;100.00;102288.53;5221679;28;20072;-73
2023/02/20 11:09:41;;;;;;;30.88;24.88;;;;;;;10.08;100.00;102298.50;5221503;28;20059;-73
2023/02/20 11:12:43;;;;;;;37.15;27.60;;;;;;;10.27;100.00;102297.44;5215394;28;20029;-73
2023/02/20 11:15:21;;;;;;;33.17;26.92;;;;;;;10.10;100.00;102295.78;5224785;28;20124;-73
2023/02/20 11:17:55;;;;;;;35.30;27.48;;;;;;;10.04;100.00;102298.75;5222897;28;20037;-73
2023/02/20 11:20:34;;;;;;;34.90;28.25;;;;;;;10.07;100.00;102286.31;5219853;28;20026;-73
2023/02/20 11:23:06;;;;;;;39.88;29.60;;;;;;;9.90;100.00;102292.56;5223646;28;20030;-73
2023/02/20 11:25:40;;;;;;;33.97;28.10;;;;;;;9.97;100.00;102288.66;5222497;28;20034;-73
2023/02/20 11:28:21;;;;;;;34.53;28.77;;;;;;;10.03;100.00;102279.59;5224335;28;20483;-73
2023/02/20 11:31:05;;;;;;;38.60;28.85;;;;;;;10.15;100.00;102271.03;5199906;28;20029;-73
2023/02/20 11:33:46;;;;;;;34.25;27.88;;;;;;;10.11;100.00;102273.88;5218492;28;20021;-73
2023/02/20 11:36:22;;;;;;;34.35;28.00;;;;;;;10.03;100.00;102287.44;5227959;28;20110;-73
2023/02/20 11:39:02;;;;;;;40.33;29.90;;;;;;;10.04;100.00;102283.03;5207209;28;20030;-73
2023/02/20 11:41:35;;;;;;;36.40;29.75;;;;;;;9.99;100.00;102281.53;5223981;28;20489;-73
2023/02/20 11:44:09;;;;;;;40.15;30.50;;;;;;;10.08;100.00;102269.69;5227172;28;20041;-73
2023/02/20 11:46:42;;;;;;;34.17;29.83;;;;;;;10.02;100.00;102259.59;5201554;28;20498;-73
2023/02/20 11:49:27;;;;;;;39.97;32.10;;;;;;;10.24;100.00;102252.13;5223255;28;20029;-73
2023/02/20 11:52:17;;;;;;;38.70;31.60;;;;;;;10.15;100.00;102252.69;5218682;28;20120;-73
2023/02/20 11:55:21;;;;;;;43.33;31.80;;;;;;;10.34;100.00;102249.81;5198591;28;20029;-73
2023/02/20 11:57:52;;;;;;;43.72;33.10;;;;;;;10.11;100.00;102255.56;5227695;28;20025;-73
2023/02/20 12:00:42;;;;;;;38.10;32.05;;;;;;;10.07;100.00;102238.34;5222477;28;20040;-73
2023/02/20 12:03:22;;;;;;;41.88;33.97;;;;;;;10.11;100.00;102219.75;5220789;28;20030;-73